createdAt,value
2018-05-21T11:38:58.570Z,1.62
2018-05-21T11:41:26.316Z,1.37
2018-05-21T11:43:54.442Z,1.35
2018-05-21T11:46:22.929Z,1.60
2018-05-21T11:48:50.680Z,1.60
2018-05-21T11:51:18.391Z,1.70
2018-05-21T11:53:46.205Z,1.70
2018-05-21T11:56:13.903Z,1.80
2018-05-21T11:58:42.558Z,1.40
2018-05-21T12:01:10.271Z,1.52
2018-05-21T12:03:39.455Z,1.52
2018-05-21T12:06:07.922Z,1.58
2018-05-21T12:08:37.181Z,1.40
2018-05-21T12:11:06.230Z,1.50
2018-05-21T12:13:34.725Z,1.77
2018-05-21T12:16:03.777Z,1.65
2018-05-21T12:18:31.474Z,1.55
2018-05-21T12:20:59.585Z,1.85
2018-05-21T12:23:28.043Z,1.75
2018-05-21T12:25:56.143Z,1.70
2018-05-21T12:28:24.690Z,1.70
2018-05-21T12:30:52.770Z,1.30
2018-05-21T12:33:23.239Z,1.60
2018-05-21T12:35:52.278Z,1.77
2018-05-21T12:38:20.728Z,1.55
2018-05-21T12:40:49.185Z,1.37
2018-05-21T12:43:17.281Z,1.50
2018-05-21T12:45:46.331Z,1.58
2018-05-21T12:48:15.164Z,1.50
2018-05-21T12:50:43.245Z,1.62
2018-05-21T12:53:11.699Z,1.52
2018-05-21T12:55:40.900Z,1.65
2018-05-21T12:58:08.986Z,1.55
2018-05-21T13:00:37.458Z,1.60
2018-05-21T13:03:05.937Z,1.42
2018-05-21T13:05:34.042Z,1.37
2018-05-21T13:08:03.252Z,1.73
2018-05-21T13:10:31.731Z,1.60
2018-05-21T13:12:59.817Z,1.50
2018-05-21T13:15:28.272Z,1.67
2018-05-21T13:17:56.380Z,1.50
2018-05-21T13:20:24.850Z,1.83
2018-05-21T13:22:53.375Z,1.50
2018-05-21T13:25:21.472Z,1.50
2018-05-21T13:27:49.556Z,1.50
2018-05-21T13:30:18.038Z,1.52
2018-05-21T13:32:47.247Z,1.73
2018-05-21T13:35:16.497Z,1.80
2018-05-21T13:37:44.951Z,1.50
2018-05-21T13:40:13.038Z,1.70
2018-05-21T13:42:40.765Z,1.70
2018-05-21T13:45:09.225Z,1.58
2018-05-21T13:47:36.908Z,1.75
2018-05-21T13:50:04.639Z,1.58
2018-05-21T13:52:32.778Z,1.65
2018-05-21T13:55:00.850Z,1.70
2018-05-21T13:57:29.325Z,1.80
2018-05-21T13:59:57.406Z,1.60
2018-05-21T14:02:25.882Z,1.83
2018-05-21T14:04:55.093Z,1.80
2018-05-21T14:07:24.308Z,1.65
2018-05-21T14:09:52.774Z,1.80
2018-05-21T14:12:21.997Z,1.67
2018-05-21T14:14:51.192Z,1.90
2018-05-21T14:17:19.718Z,1.80
2018-05-21T14:19:48.139Z,1.80
2018-05-21T14:22:16.234Z,1.70
2018-05-21T14:24:45.429Z,1.70
2018-05-21T14:27:13.909Z,1.83
2018-05-21T14:29:42.092Z,1.62
2018-05-21T14:32:10.512Z,1.73
2018-05-21T14:34:38.620Z,1.70
2018-05-21T14:37:07.244Z,1.62
2018-05-21T14:39:35.708Z,1.60
2018-05-21T14:42:04.546Z,1.70
2018-05-21T14:44:33.008Z,1.67
2018-05-21T14:47:01.118Z,1.90
2018-05-21T14:49:29.593Z,1.77
2018-05-21T14:51:57.713Z,1.70
2018-05-21T14:54:27.301Z,1.90
2018-05-21T14:56:55.427Z,1.50
2018-05-21T14:59:23.525Z,1.70
2018-05-21T15:01:51.993Z,1.60
2018-05-21T15:04:20.541Z,1.80
2018-05-21T15:06:48.589Z,1.70
2018-05-21T15:09:17.854Z,2.20
2018-05-21T15:11:47.045Z,1.90
2018-05-21T15:14:15.524Z,1.77
2018-05-21T15:16:43.617Z,1.70
2018-05-21T15:19:12.126Z,1.90
2018-05-21T15:21:40.221Z,1.60
2018-05-21T15:24:08.710Z,1.70
2018-05-21T15:26:37.209Z,1.70
2018-05-21T15:29:05.307Z,1.80
2018-05-21T15:31:33.407Z,1.90
2018-05-21T15:34:01.932Z,1.75
2018-05-21T15:36:30.017Z,1.60
2018-05-21T15:38:58.503Z,1.50
2018-05-21T15:41:26.617Z,1.95
2018-05-21T15:43:55.090Z,1.70
2018-05-21T15:46:23.512Z,1.80
2018-05-21T15:48:51.605Z,1.73
2018-05-21T15:51:20.840Z,1.80
2018-05-21T15:53:49.354Z,1.85
2018-05-21T15:56:17.463Z,1.92
2018-05-21T15:58:45.929Z,2.10
2018-05-21T16:01:14.409Z,2.15
2018-05-21T16:03:43.253Z,1.90
2018-05-21T16:06:11.811Z,1.98
2018-05-21T16:08:39.926Z,2.00
2018-05-21T16:11:08.758Z,2.10
2018-05-21T16:13:36.461Z,2.17
2018-05-21T16:16:04.933Z,2.05
2018-05-21T16:18:33.043Z,2.20
2018-05-21T16:21:01.547Z,1.90
2018-05-21T16:23:29.652Z,1.83
2018-05-21T16:25:58.115Z,2.10
2018-05-21T16:28:26.213Z,1.90
2018-05-21T16:30:54.681Z,1.90
2018-05-21T16:33:23.906Z,1.80
2018-05-21T16:35:52.391Z,1.80
2018-05-21T16:38:20.493Z,2.03
2018-05-21T16:40:49.736Z,1.85
2018-05-21T16:43:18.227Z,2.50
2018-05-21T16:45:46.411Z,3.50
2018-05-21T16:48:14.933Z,2.87
2018-05-21T16:50:43.034Z,2.60
2018-05-21T16:53:12.263Z,2.10
2018-05-21T16:55:41.469Z,2.00
2018-05-21T16:58:09.945Z,1.80
2018-05-21T17:00:39.146Z,1.80
2018-05-21T17:03:10.931Z,1.83
2018-05-21T17:05:39.068Z,2.10
2018-05-21T17:08:07.192Z,1.90
2018-05-21T17:10:35.289Z,1.90
2018-05-21T17:13:03.770Z,2.50
2018-05-21T17:15:31.887Z,2.20
2018-05-21T17:18:00.354Z,2.70
2018-05-21T17:20:28.468Z,3.90
2018-05-21T17:22:56.180Z,3.37
2018-05-21T17:25:25.386Z,2.10
2018-05-21T17:27:53.499Z,1.60
2018-05-21T17:30:22.701Z,1.80
2018-05-21T17:32:51.183Z,1.60
2018-05-21T17:35:19.307Z,1.80
2018-05-21T17:37:48.505Z,1.80
2018-05-21T17:40:17.005Z,1.87
2018-05-21T17:42:46.229Z,1.73
2018-05-21T17:45:14.698Z,1.80
2018-05-21T17:47:42.814Z,1.80
2018-05-21T17:50:11.298Z,2.00
2018-05-21T17:52:39.433Z,1.90
2018-05-21T17:55:09.533Z,1.83
2018-05-21T17:57:37.993Z,1.60
2018-05-21T18:00:07.203Z,1.63
2018-05-21T18:02:34.890Z,1.77
2018-05-21T18:05:02.996Z,1.70
2018-05-21T18:07:31.103Z,1.70
2018-05-21T18:09:59.590Z,1.80
2018-05-21T18:12:27.693Z,1.77
2018-05-21T18:14:55.616Z,1.93
2018-05-21T18:17:23.323Z,1.70
2018-05-21T18:19:51.826Z,1.80
2018-05-21T18:22:19.933Z,1.63
2018-05-21T18:24:48.984Z,1.73
2018-05-21T18:27:17.107Z,1.73
2018-05-21T18:29:44.801Z,1.57
2018-05-21T18:32:13.289Z,1.80
2018-05-21T18:34:41.403Z,1.60
2018-05-21T18:37:10.123Z,2.10
2018-05-21T18:39:39.023Z,1.73
2018-05-21T18:42:08.235Z,1.73
2018-05-21T18:44:36.707Z,1.67
2018-05-21T18:47:05.982Z,1.60
2018-05-21T18:49:35.192Z,1.53
2018-05-21T18:52:03.705Z,1.70
2018-05-21T18:54:32.183Z,1.63
2018-05-21T18:57:01.055Z,1.80
2018-05-21T18:59:29.526Z,1.60
2018-05-21T19:01:57.632Z,1.50
2018-05-21T19:04:26.111Z,1.67
2018-05-21T19:06:54.207Z,1.67
2018-05-21T19:09:22.669Z,1.73
2018-05-21T19:11:51.140Z,1.80
2018-05-21T19:14:19.270Z,1.60
2018-05-21T19:16:48.496Z,1.90
2018-05-21T19:19:16.991Z,1.80
2018-05-21T19:21:45.898Z,2.00
2018-05-21T19:24:14.366Z,1.60
2018-05-21T19:26:43.577Z,1.90
2018-05-21T19:29:12.050Z,1.90
2018-05-21T19:31:40.525Z,1.87
2018-05-21T19:34:09.010Z,1.60
2018-05-21T19:36:37.166Z,1.67
2018-05-21T19:39:06.064Z,1.90
2018-05-21T19:41:34.538Z,1.70
2018-05-21T19:44:02.993Z,1.80
2018-05-21T19:46:31.176Z,1.80
2018-05-21T19:49:00.342Z,1.90
2018-05-21T19:51:29.563Z,1.70
2018-05-21T19:53:58.049Z,1.83
2018-05-21T19:56:26.484Z,1.70
2018-05-21T19:58:54.613Z,1.87
2018-05-21T20:01:23.079Z,1.80
2018-05-21T20:03:51.167Z,1.87
2018-05-21T20:06:20.372Z,1.80
2018-05-21T20:08:48.896Z,1.90
2018-05-21T20:11:17.849Z,1.70
2018-05-21T20:13:45.604Z,1.77
2018-05-21T20:16:13.701Z,1.80
2018-05-21T20:18:42.910Z,1.80
2018-05-21T20:21:11.571Z,1.80
2018-05-21T20:23:39.660Z,1.77
2018-05-21T20:26:07.764Z,1.90
2018-05-21T20:28:36.811Z,1.90
2018-05-21T20:31:04.541Z,1.80
2018-05-21T20:33:32.642Z,1.80
2018-05-21T20:36:01.680Z,1.73
2018-05-21T20:38:30.712Z,1.80
2018-05-21T20:40:58.815Z,1.70
2018-05-21T20:43:26.934Z,1.77
2018-05-21T20:45:55.638Z,1.77
2018-05-21T20:48:23.727Z,1.70
2018-05-21T20:50:51.816Z,1.70
2018-05-21T20:53:21.017Z,1.80
2018-05-21T20:55:50.075Z,1.70
2018-05-21T20:58:17.811Z,1.90
2018-05-21T21:00:46.321Z,1.83
2018-05-21T21:03:15.167Z,2.00
2018-05-21T21:05:43.617Z,1.70
2018-05-21T21:08:12.843Z,1.80
2018-05-21T21:10:42.094Z,1.90
2018-05-21T21:13:11.344Z,1.80
2018-05-21T21:15:39.894Z,1.73
2018-05-21T21:18:07.988Z,1.80
2018-05-21T21:20:37.097Z,1.87
2018-05-21T21:23:05.553Z,1.90
2018-05-21T21:25:34.018Z,1.87
2018-05-21T21:28:03.239Z,1.80
2018-05-21T21:30:31.698Z,1.90
2018-05-21T21:32:59.839Z,1.87
2018-05-21T21:35:28.319Z,2.10
2018-05-21T21:37:57.530Z,1.90
2018-05-21T21:40:25.640Z,1.93
2018-05-21T21:42:54.159Z,1.87
2018-05-21T21:45:22.258Z,1.60
2018-05-21T21:47:51.309Z,1.67
2018-05-21T21:50:20.347Z,2.00
2018-05-21T21:52:48.438Z,1.60
2018-05-21T21:55:16.546Z,1.67
2018-05-21T21:57:45.753Z,1.80
2018-05-21T22:00:14.792Z,1.80
2018-05-21T22:02:42.504Z,1.97
2018-05-21T22:05:11.035Z,1.90
2018-05-21T22:07:39.866Z,2.00
2018-05-21T22:10:08.318Z,1.83
2018-05-21T22:12:37.503Z,1.70
2018-05-21T22:15:05.945Z,1.50
2018-05-21T22:17:35.137Z,2.20
2018-05-21T22:20:03.676Z,1.90
2018-05-21T22:22:31.775Z,1.80
2018-05-21T22:25:01.010Z,1.80
2018-05-21T22:27:30.062Z,1.90
2018-05-21T22:29:59.120Z,1.60
2018-05-21T22:32:27.582Z,1.60
2018-05-21T22:34:56.177Z,1.93
2018-05-21T22:37:24.644Z,1.60
2018-05-21T22:39:52.728Z,1.90
2018-05-21T22:42:21.256Z,1.90
2018-05-21T22:44:49.381Z,1.80
2018-05-21T22:47:18.420Z,1.90
2018-05-21T22:49:47.239Z,1.90
2018-05-21T22:52:15.311Z,2.00
2018-05-21T22:54:44.521Z,1.80
2018-05-21T22:57:13.566Z,1.77
2018-05-21T22:59:41.257Z,2.17
2018-05-21T23:02:10.457Z,2.00
2018-05-21T23:04:38.957Z,1.93
2018-05-21T23:07:07.050Z,2.07
2018-05-21T23:09:35.501Z,2.27
2018-05-21T23:12:03.599Z,2.17
2018-05-21T23:14:32.102Z,2.10
2018-05-21T23:17:00.209Z,2.10
2018-05-21T23:19:29.700Z,2.13
2018-05-21T23:21:57.784Z,2.13
2018-05-21T23:24:26.224Z,2.03
2018-05-21T23:26:54.684Z,2.00
2018-05-21T23:29:22.759Z,2.30
2018-05-21T23:31:51.949Z,2.00
2018-05-21T23:34:19.632Z,2.20
2018-05-21T23:36:47.725Z,2.10
2018-05-21T23:39:16.769Z,2.60
2018-05-21T23:41:45.229Z,2.20
2018-05-21T23:44:14.267Z,2.27
2018-05-21T23:46:43.315Z,2.10
2018-05-21T23:49:11.973Z,2.13
2018-05-21T23:51:40.469Z,2.10
2018-05-21T23:54:08.920Z,2.13
2018-05-21T23:56:37.009Z,2.30
2018-05-21T23:59:06.049Z,2.40
